sensor_id;sensor_type;location;lat;lon;timestamp;P1;durP1;ratioP1;P2;durP2;ratioP2
43710;SDS011;29309;42.682;23.372;2022-09-01T00:01:13;22.40;;;13.00;;
43710;SDS011;29309;42.682;23.372;2022-09-01T00:03:48;16.23;;;12.43;;
43710;SDS011;29309;42.682;23.372;2022-09-01T00:06:16;16.27;;;12.45;;
43710;SDS011;29309;42.682;23.372;2022-09-01T00:08:50;16.23;;;12.32;;
43710;SDS011;29309;42.682;23.372;2022-09-01T00:11:17;15.18;;;12.15;;
43710;SDS011;29309;42.682;23.372;2022-09-01T00:13:43;16.27;;;12.27;;
43710;SDS011;29309;42.682;23.372;2022-09-01T00:16:10;18.08;;;11.85;;
43710;SDS011;29309;42.682;23.372;2022-09-01T00:18:38;18.67;;;11.57;;
43710;SDS011;29309;42.682;23.372;2022-09-01T00:21:06;15.90;;;12.32;;
43710;SDS011;29309;42.682;23.372;2022-09-01T00:23:32;15.80;;;11.65;;
43710;SDS011;29309;42.682;23.372;2022-09-01T00:25:58;20.70;;;12.82;;
43710;SDS011;29309;42.682;23.372;2022-09-01T00:28:23;14.90;;;12.68;;
43710;SDS011;29309;42.682;23.372;2022-09-01T00:30:49;15.70;;;12.63;;
43710;SDS011;29309;42.682;23.372;2022-09-01T00:33:15;15.38;;;12.40;;
43710;SDS011;29309;42.682;23.372;2022-09-01T00:35:40;16.48;;;13.05;;
43710;SDS011;29309;42.682;23.372;2022-09-01T00:38:06;19.15;;;12.95;;
43710;SDS011;29309;42.682;23.372;2022-09-01T00:40:31;16.83;;;12.80;;
43710;SDS011;29309;42.682;23.372;2022-09-01T00:42:57;17.65;;;13.57;;
43710;SDS011;29309;42.682;23.372;2022-09-01T00:45:24;19.95;;;13.05;;
43710;SDS011;29309;42.682;23.372;2022-09-01T00:47:50;16.45;;;12.82;;
43710;SDS011;29309;42.682;23.372;2022-09-01T00:50:16;17.05;;;12.50;;
43710;SDS011;29309;42.682;23.372;2022-09-01T00:52:48;18.75;;;12.85;;
43710;SDS011;29309;42.682;23.372;2022-09-01T00:55:18;16.33;;;13.15;;
43710;SDS011;29309;42.682;23.372;2022-09-01T00:57:48;16.50;;;11.80;;
43710;SDS011;29309;42.682;23.372;2022-09-01T01:00:24;16.65;;;12.32;;
43710;SDS011;29309;42.682;23.372;2022-09-01T01:02:53;15.43;;;12.07;;
43710;SDS011;29309;42.682;23.372;2022-09-01T01:05:25;19.63;;;13.07;;
43710;SDS011;29309;42.682;23.372;2022-09-01T01:07:57;17.85;;;12.98;;
43710;SDS011;29309;42.682;23.372;2022-09-01T01:10:24;14.43;;;11.82;;
43710;SDS011;29309;42.682;23.372;2022-09-01T01:12:50;16.67;;;12.02;;
43710;SDS011;29309;42.682;23.372;2022-09-01T01:15:18;14.70;;;11.50;;
43710;SDS011;29309;42.682;23.372;2022-09-01T01:17:44;17.80;;;12.38;;
43710;SDS011;29309;42.682;23.372;2022-09-01T01:20:10;15.18;;;11.57;;
43710;SDS011;29309;42.682;23.372;2022-09-01T01:26:01;19.35;;;13.05;;
43710;SDS011;29309;42.682;23.372;2022-09-01T01:28:33;18.92;;;12.55;;
43710;SDS011;29309;42.682;23.372;2022-09-01T01:31:11;15.98;;;12.18;;
43710;SDS011;29309;42.682;23.372;2022-09-01T01:33:42;18.10;;;12.25;;
43710;SDS011;29309;42.682;23.372;2022-09-01T01:36:19;17.80;;;11.93;;
43710;SDS011;29309;42.682;23.372;2022-09-01T01:38:57;18.75;;;11.82;;
43710;SDS011;29309;42.682;23.372;2022-09-01T01:41:27;14.88;;;11.38;;
43710;SDS011;29309;42.682;23.372;2022-09-01T01:43:58;16.27;;;13.07;;
43710;SDS011;29309;42.682;23.372;2022-09-01T01:46:28;18.15;;;12.45;;
43710;SDS011;29309;42.682;23.372;2022-09-01T01:48:55;21.50;;;12.90;;
43710;SDS011;29309;42.682;23.372;2022-09-01T01:51:20;22.63;;;12.80;;
43710;SDS011;29309;42.682;23.372;2022-09-01T01:53:51;16.17;;;12.35;;
43710;SDS011;29309;42.682;23.372;2022-09-01T01:56:19;17.55;;;13.02;;
43710;SDS011;29309;42.682;23.372;2022-09-01T01:58:49;16.77;;;11.82;;
43710;SDS011;29309;42.682;23.372;2022-09-01T02:01:19;16.88;;;11.68;;
43710;SDS011;29309;42.682;23.372;2022-09-01T02:03:48;18.65;;;13.57;;
43710;SDS011;29309;42.682;23.372;2022-09-01T02:06:16;17.88;;;11.68;;
43710;SDS011;29309;42.682;23.372;2022-09-01T02:08:46;13.68;;;11.57;;
43710;SDS011;29309;42.682;23.372;2022-09-01T02:11:12;17.88;;;12.88;;
43710;SDS011;29309;42.682;23.372;2022-09-01T02:13:41;19.75;;;12.90;;
43710;SDS011;29309;42.682;23.372;2022-09-01T02:16:09;20.35;;;12.82;;
43710;SDS011;29309;42.682;23.372;2022-09-01T02:18:37;18.85;;;13.02;;
43710;SDS011;29309;42.682;23.372;2022-09-01T02:21:06;17.73;;;12.00;;
43710;SDS011;29309;42.682;23.372;2022-09-01T02:23:38;16.63;;;13.52;;
43710;SDS011;29309;42.682;23.372;2022-09-01T02:26:05;18.45;;;11.77;;
43710;SDS011;29309;42.682;23.372;2022-09-01T02:28:34;17.90;;;12.75;;
43710;SDS011;29309;42.682;23.372;2022-09-01T02:31:01;19.55;;;12.25;;
43710;SDS011;29309;42.682;23.372;2022-09-01T02:33:29;19.33;;;13.10;;
43710;SDS011;29309;42.682;23.372;2022-09-01T02:35:57;14.10;;;11.43;;
43710;SDS011;29309;42.682;23.372;2022-09-01T02:38:25;21.73;;;13.20;;
43710;SDS011;29309;42.682;23.372;2022-09-01T02:40:53;18.92;;;12.10;;
43710;SDS011;29309;42.682;23.372;2022-09-01T02:43:20;17.38;;;12.45;;
43710;SDS011;29309;42.682;23.372;2022-09-01T02:45:49;17.83;;;13.15;;
43710;SDS011;29309;42.682;23.372;2022-09-01T02:48:18;20.38;;;11.98;;
43710;SDS011;29309;42.682;23.372;2022-09-01T02:50:48;18.95;;;12.85;;
43710;SDS011;29309;42.682;23.372;2022-09-01T02:53:14;17.48;;;12.80;;
43710;SDS011;29309;42.682;23.372;2022-09-01T02:55:40;23.30;;;12.85;;
43710;SDS011;29309;42.682;23.372;2022-09-01T02:58:07;20.10;;;13.00;;
43710;SDS011;29309;42.682;23.372;2022-09-01T03:00:43;18.38;;;12.88;;
43710;SDS011;29309;42.682;23.372;2022-09-01T03:03:09;19.85;;;12.82;;
43710;SDS011;29309;42.682;23.372;2022-09-01T03:05:41;20.45;;;13.05;;
43710;SDS011;29309;42.682;23.372;2022-09-01T03:08:08;18.05;;;12.32;;
43710;SDS011;29309;42.682;23.372;2022-09-01T03:10:37;17.48;;;11.93;;
43710;SDS011;29309;42.682;23.372;2022-09-01T03:13:22;18.00;;;13.00;;
43710;SDS011;29309;42.682;23.372;2022-09-01T03:15:48;16.20;;;11.85;;
43710;SDS011;29309;42.682;23.372;2022-09-01T03:18:15;15.23;;;11.90;;
43710;SDS011;29309;42.682;23.372;2022-09-01T03:20:44;18.83;;;13.60;;
43710;SDS011;29309;42.682;23.372;2022-09-01T03:23:11;16.88;;;12.20;;
43710;SDS011;29309;42.682;23.372;2022-09-01T03:25:43;16.08;;;11.90;;
43710;SDS011;29309;42.682;23.372;2022-09-01T03:28:10;15.48;;;11.68;;
43710;SDS011;29309;42.682;23.372;2022-09-01T03:30:37;16.48;;;13.00;;
43710;SDS011;29309;42.682;23.372;2022-09-01T03:33:08;15.55;;;12.32;;
43710;SDS011;29309;42.682;23.372;2022-09-01T03:35:34;17.95;;;12.38;;
43710;SDS011;29309;42.682;23.372;2022-09-01T03:38:00;17.65;;;12.05;;
43710;SDS011;29309;42.682;23.372;2022-09-01T03:40:28;15.57;;;12.60;;
43710;SDS011;29309;42.682;23.372;2022-09-01T03:43:00;22.30;;;12.75;;
43710;SDS011;29309;42.682;23.372;2022-09-01T03:45:27;17.83;;;11.77;;
43710;SDS011;29309;42.682;23.372;2022-09-01T03:47:54;17.88;;;12.85;;
43710;SDS011;29309;42.682;23.372;2022-09-01T03:50:22;21.35;;;11.88;;
43710;SDS011;29309;42.682;23.372;2022-09-01T03:52:49;18.38;;;11.60;;
43710;SDS011;29309;42.682;23.372;2022-09-01T03:55:30;19.67;;;12.73;;
43710;SDS011;29309;42.682;23.372;2022-09-01T03:58:02;17.52;;;12.05;;
43710;SDS011;29309;42.682;23.372;2022-09-01T04:00:31;16.63;;;11.73;;
43710;SDS011;29309;42.682;23.372;2022-09-01T04:03:06;17.48;;;13.25;;
43710;SDS011;29309;42.682;23.372;2022-09-01T04:05:34;18.15;;;13.23;;
43710;SDS011;29309;42.682;23.372;2022-09-01T04:08:05;15.88;;;12.38;;
43710;SDS011;29309;42.682;23.372;2022-09-01T04:10:35;18.05;;;13.57;;
43710;SDS011;29309;42.682;23.372;2022-09-01T04:13:06;16.75;;;13.25;;
43710;SDS011;29309;42.682;23.372;2022-09-01T04:15:35;21.15;;;13.80;;
43710;SDS011;29309;42.682;23.372;2022-09-01T04:18:02;27.42;;;15.52;;
43710;SDS011;29309;42.682;23.372;2022-09-01T04:20:40;22.17;;;14.75;;
43710;SDS011;29309;42.682;23.372;2022-09-01T04:23:23;24.10;;;16.17;;
43710;SDS011;29309;42.682;23.372;2022-09-01T04:25:52;27.80;;;16.73;;
43710;SDS011;29309;42.682;23.372;2022-09-01T04:28:21;34.95;;;21.75;;
43710;SDS011;29309;42.682;23.372;2022-09-01T04:30:55;28.98;;;20.27;;
43710;SDS011;29309;42.682;23.372;2022-09-01T04:33:25;28.55;;;18.02;;
43710;SDS011;29309;42.682;23.372;2022-09-01T04:36:01;23.02;;;16.80;;
43710;SDS011;29309;42.682;23.372;2022-09-01T04:38:27;36.03;;;16.70;;
43710;SDS011;29309;42.682;23.372;2022-09-01T04:40:54;25.23;;;17.35;;
43710;SDS011;29309;42.682;23.372;2022-09-01T04:43:22;24.65;;;16.70;;
43710;SDS011;29309;42.682;23.372;2022-09-01T04:45:49;29.83;;;19.27;;
43710;SDS011;29309;42.682;23.372;2022-09-01T04:48:18;30.48;;;20.88;;
43710;SDS011;29309;42.682;23.372;2022-09-01T04:50:46;28.65;;;19.83;;
43710;SDS011;29309;42.682;23.372;2022-09-01T04:53:13;26.52;;;18.65;;
43710;SDS011;29309;42.682;23.372;2022-09-01T04:55:40;29.10;;;18.52;;
43710;SDS011;29309;42.682;23.372;2022-09-01T04:58:09;27.23;;;18.40;;
43710;SDS011;29309;42.682;23.372;2022-09-01T05:00:41;27.50;;;16.90;;
43710;SDS011;29309;42.682;23.372;2022-09-01T05:03:09;27.55;;;16.90;;
43710;SDS011;29309;42.682;23.372;2022-09-01T05:05:38;29.25;;;17.70;;
43710;SDS011;29309;42.682;23.372;2022-09-01T05:08:09;29.77;;;18.50;;
43710;SDS011;29309;42.682;23.372;2022-09-01T05:10:42;30.88;;;18.60;;
43710;SDS011;29309;42.682;23.372;2022-09-01T05:13:11;30.48;;;17.90;;
43710;SDS011;29309;42.682;23.372;2022-09-01T05:15:41;30.88;;;19.00;;
43710;SDS011;29309;42.682;23.372;2022-09-01T05:18:11;26.77;;;18.20;;
43710;SDS011;29309;42.682;23.372;2022-09-01T05:20:47;33.75;;;19.95;;
43710;SDS011;29309;42.682;23.372;2022-09-01T05:23:14;37.75;;;19.77;;
43710;SDS011;29309;42.682;23.372;2022-09-01T05:25:44;33.38;;;19.05;;
43710;SDS011;29309;42.682;23.372;2022-09-01T05:28:17;39.25;;;20.05;;
43710;SDS011;29309;42.682;23.372;2022-09-01T05:30:44;41.05;;;21.45;;
43710;SDS011;29309;42.682;23.372;2022-09-01T05:33:14;41.72;;;21.85;;
43710;SDS011;29309;42.682;23.372;2022-09-01T05:35:58;45.67;;;21.85;;
43710;SDS011;29309;42.682;23.372;2022-09-01T05:38:26;44.45;;;24.25;;
43710;SDS011;29309;42.682;23.372;2022-09-01T05:41:02;44.50;;;23.85;;
43710;SDS011;29309;42.682;23.372;2022-09-01T05:43:32;47.95;;;23.27;;
43710;SDS011;29309;42.682;23.372;2022-09-01T05:46:00;54.55;;;23.40;;
43710;SDS011;29309;42.682;23.372;2022-09-01T05:48:30;45.13;;;24.30;;
43710;SDS011;29309;42.682;23.372;2022-09-01T05:50:56;49.47;;;24.13;;
43710;SDS011;29309;42.682;23.372;2022-09-01T05:53:23;51.78;;;23.95;;
43710;SDS011;29309;42.682;23.372;2022-09-01T05:55:49;45.10;;;23.25;;
43710;SDS011;29309;42.682;23.372;2022-09-01T05:58:21;38.63;;;22.05;;
43710;SDS011;29309;42.682;23.372;2022-09-01T06:00:50;39.85;;;21.60;;
43710;SDS011;29309;42.682;23.372;2022-09-01T06:03:18;40.45;;;21.48;;
43710;SDS011;29309;42.682;23.372;2022-09-01T06:05:47;41.70;;;23.75;;
43710;SDS011;29309;42.682;23.372;2022-09-01T06:08:20;42.38;;;21.52;;
43710;SDS011;29309;42.682;23.372;2022-09-01T06:10:48;43.42;;;21.77;;
43710;SDS011;29309;42.682;23.372;2022-09-01T06:13:14;46.22;;;22.25;;
43710;SDS011;29309;42.682;23.372;2022-09-01T06:15:41;39.90;;;20.92;;
43710;SDS011;29309;42.682;23.372;2022-09-01T06:18:09;44.08;;;21.70;;
43710;SDS011;29309;42.682;23.372;2022-09-01T06:20:40;36.50;;;20.38;;
43710;SDS011;29309;42.682;23.372;2022-09-01T06:23:08;35.05;;;20.30;;
43710;SDS011;29309;42.682;23.372;2022-09-01T06:25:36;36.50;;;19.65;;
43710;SDS011;29309;42.682;23.372;2022-09-01T06:28:03;34.08;;;18.30;;
43710;SDS011;29309;42.682;23.372;2022-09-01T06:30:30;35.78;;;18.75;;
43710;SDS011;29309;42.682;23.372;2022-09-01T06:33:00;37.30;;;18.13;;
43710;SDS011;29309;42.682;23.372;2022-09-01T06:35:26;37.47;;;18.13;;
43710;SDS011;29309;42.682;23.372;2022-09-01T06:37:54;37.05;;;19.75;;
43710;SDS011;29309;42.682;23.372;2022-09-01T06:40:20;34.17;;;17.75;;
43710;SDS011;29309;42.682;23.372;2022-09-01T06:42:50;31.92;;;19.33;;
43710;SDS011;29309;42.682;23.372;2022-09-01T06:45:18;35.17;;;18.52;;
43710;SDS011;29309;42.682;23.372;2022-09-01T06:47:45;31.80;;;17.70;;
43710;SDS011;29309;42.682;23.372;2022-09-01T06:50:15;36.50;;;21.73;;
43710;SDS011;29309;42.682;23.372;2022-09-01T06:52:46;35.58;;;21.15;;
43710;SDS011;29309;42.682;23.372;2022-09-01T06:55:14;35.47;;;20.23;;
43710;SDS011;29309;42.682;23.372;2022-09-01T06:57:40;42.67;;;25.25;;
43710;SDS011;29309;42.682;23.372;2022-09-01T07:00:11;36.33;;;22.23;;
43710;SDS011;29309;42.682;23.372;2022-09-01T07:02:44;34.78;;;21.92;;
43710;SDS011;29309;42.682;23.372;2022-09-01T07:05:17;39.15;;;21.67;;
43710;SDS011;29309;42.682;23.372;2022-09-01T07:07:49;31.63;;;18.85;;
43710;SDS011;29309;42.682;23.372;2022-09-01T07:10:18;31.73;;;19.95;;
43710;SDS011;29309;42.682;23.372;2022-09-01T07:12:50;29.27;;;19.55;;
43710;SDS011;29309;42.682;23.372;2022-09-01T07:15:20;27.98;;;19.17;;
43710;SDS011;29309;42.682;23.372;2022-09-01T07:17:53;35.97;;;20.35;;
43710;SDS011;29309;42.682;23.372;2022-09-01T07:20:24;32.38;;;19.23;;
43710;SDS011;29309;42.682;23.372;2022-09-01T07:22:53;32.17;;;18.23;;
43710;SDS011;29309;42.682;23.372;2022-09-01T07:25:20;28.33;;;17.88;;
43710;SDS011;29309;42.682;23.372;2022-09-01T07:27:46;28.27;;;16.77;;
43710;SDS011;29309;42.682;23.372;2022-09-01T07:30:16;26.45;;;18.02;;
43710;SDS011;29309;42.682;23.372;2022-09-01T07:32:43;28.17;;;17.33;;
43710;SDS011;29309;42.682;23.372;2022-09-01T07:35:09;23.10;;;15.88;;
43710;SDS011;29309;42.682;23.372;2022-09-01T07:37:36;29.00;;;16.65;;
43710;SDS011;29309;42.682;23.372;2022-09-01T07:40:06;22.38;;;15.70;;
43710;SDS011;29309;42.682;23.372;2022-09-01T07:42:34;18.30;;;13.60;;
43710;SDS011;29309;42.682;23.372;2022-09-01T07:45:04;23.40;;;14.88;;
43710;SDS011;29309;42.682;23.372;2022-09-01T07:47:34;25.15;;;15.57;;
43710;SDS011;29309;42.682;23.372;2022-09-01T07:50:05;21.48;;;14.73;;
43710;SDS011;29309;42.682;23.372;2022-09-01T07:52:39;22.58;;;16.05;;
43710;SDS011;29309;42.682;23.372;2022-09-01T07:55:11;19.17;;;14.95;;
43710;SDS011;29309;42.682;23.372;2022-09-01T07:57:39;23.05;;;15.48;;
43710;SDS011;29309;42.682;23.372;2022-09-01T08:00:14;18.48;;;14.65;;
43710;SDS011;29309;42.682;23.372;2022-09-01T08:02:43;22.77;;;15.00;;
43710;SDS011;29309;42.682;23.372;2022-09-01T08:05:12;20.10;;;14.88;;
43710;SDS011;29309;42.682;23.372;2022-09-01T08:07:41;21.40;;;13.30;;
43710;SDS011;29309;42.682;23.372;2022-09-01T08:10:07;21.15;;;14.32;;
43710;SDS011;29309;42.682;23.372;2022-09-01T08:12:33;22.15;;;16.02;;
43710;SDS011;29309;42.682;23.372;2022-09-01T08:15:06;23.00;;;14.18;;
43710;SDS011;29309;42.682;23.372;2022-09-01T08:17:36;25.25;;;14.77;;
43710;SDS011;29309;42.682;23.372;2022-09-01T08:20:02;20.20;;;15.55;;
43710;SDS011;29309;42.682;23.372;2022-09-01T08:22:33;22.63;;;14.27;;
43710;SDS011;29309;42.682;23.372;2022-09-01T08:25:02;24.35;;;15.57;;
43710;SDS011;29309;42.682;23.372;2022-09-01T08:27:30;22.63;;;14.68;;
43710;SDS011;29309;42.682;23.372;2022-09-01T08:29:57;23.10;;;15.25;;
43710;SDS011;29309;42.682;23.372;2022-09-01T08:32:24;23.80;;;16.23;;
43710;SDS011;29309;42.682;23.372;2022-09-01T08:34:51;27.35;;;16.55;;
43710;SDS011;29309;42.682;23.372;2022-09-01T08:37:17;24.45;;;16.80;;
43710;SDS011;29309;42.682;23.372;2022-09-01T08:39:44;22.95;;;15.48;;
43710;SDS011;29309;42.682;23.372;2022-09-01T08:48:45;17.67;;;13.60;;
43710;SDS011;29309;42.682;23.372;2022-09-01T08:56:40;21.63;;;13.93;;
43710;SDS011;29309;42.682;23.372;2022-09-01T08:59:08;22.65;;;13.10;;
43710;SDS011;29309;42.682;23.372;2022-09-01T09:01:43;19.25;;;12.15;;
43710;SDS011;29309;42.682;23.372;2022-09-01T09:04:23;16.33;;;13.05;;
43710;SDS011;29309;42.682;23.372;2022-09-01T09:07:02;21.65;;;13.45;;
43710;SDS011;29309;42.682;23.372;2022-09-01T09:09:43;23.20;;;14.73;;
43710;SDS011;29309;42.682;23.372;2022-09-01T09:20:40;16.38;;;11.35;;
43710;SDS011;29309;42.682;23.372;2022-09-01T09:23:10;19.08;;;11.20;;
43710;SDS011;29309;42.682;23.372;2022-09-01T09:25:48;17.90;;;12.43;;
43710;SDS011;29309;42.682;23.372;2022-09-01T09:28:15;25.40;;;12.95;;
43710;SDS011;29309;42.682;23.372;2022-09-01T09:30:40;24.13;;;13.70;;
43710;SDS011;29309;42.682;23.372;2022-09-01T09:33:07;27.65;;;14.02;;
43710;SDS011;29309;42.682;23.372;2022-09-01T09:35:39;21.60;;;11.18;;
43710;SDS011;29309;42.682;23.372;2022-09-01T09:40:55;17.55;;;11.68;;
43710;SDS011;29309;42.682;23.372;2022-09-01T09:43:37;15.77;;;10.45;;
43710;SDS011;29309;42.682;23.372;2022-09-01T09:46:21;13.38;;;8.57;;
43710;SDS011;29309;42.682;23.372;2022-09-01T09:49:07;19.77;;;10.80;;
43710;SDS011;29309;42.682;23.372;2022-09-01T09:51:33;16.00;;;10.43;;
43710;SDS011;29309;42.682;23.372;2022-09-01T09:56:43;13.73;;;9.40;;
43710;SDS011;29309;42.682;23.372;2022-09-01T09:59:23;14.77;;;10.23;;
43710;SDS011;29309;42.682;23.372;2022-09-01T10:01:56;17.88;;;10.50;;
43710;SDS011;29309;42.682;23.372;2022-09-01T10:04:34;11.00;;;8.27;;
43710;SDS011;29309;42.682;23.372;2022-09-01T10:07:08;12.02;;;8.57;;
43710;SDS011;29309;42.682;23.372;2022-09-01T10:09:49;22.80;;;9.00;;
43710;SDS011;29309;42.682;23.372;2022-09-01T10:12:15;9.88;;;7.22;;
43710;SDS011;29309;42.682;23.372;2022-09-01T10:14:41;14.23;;;8.65;;
43710;SDS011;29309;42.682;23.372;2022-09-01T10:17:13;12.93;;;7.75;;
43710;SDS011;29309;42.682;23.372;2022-09-01T10:19:44;10.48;;;7.97;;
43710;SDS011;29309;42.682;23.372;2022-09-01T10:22:18;11.23;;;7.60;;
43710;SDS011;29309;42.682;23.372;2022-09-01T10:24:45;11.77;;;8.25;;
43710;SDS011;29309;42.682;23.372;2022-09-01T10:27:24;14.25;;;8.43;;
43710;SDS011;29309;42.682;23.372;2022-09-01T10:30:35;10.70;;;7.72;;
43710;SDS011;29309;42.682;23.372;2022-09-01T10:32:48;12.18;;;8.20;;
43710;SDS011;29309;42.682;23.372;2022-09-01T10:35:32;9.90;;;7.50;;
43710;SDS011;29309;42.682;23.372;2022-09-01T10:38:08;11.13;;;7.47;;
43710;SDS011;29309;42.682;23.372;2022-09-01T10:40:40;12.60;;;8.07;;
43710;SDS011;29309;42.682;23.372;2022-09-01T10:43:43;13.20;;;8.50;;
43710;SDS011;29309;42.682;23.372;2022-09-01T10:48:44;13.38;;;8.65;;
43710;SDS011;29309;42.682;23.372;2022-09-01T10:56:23;12.40;;;9.57;;
43710;SDS011;29309;42.682;23.372;2022-09-01T11:04:23;17.67;;;10.20;;
43710;SDS011;29309;42.682;23.372;2022-09-01T11:07:28;14.23;;;10.55;;
43710;SDS011;29309;42.682;23.372;2022-09-01T11:10:07;33.33;;;11.45;;
43710;SDS011;29309;42.682;23.372;2022-09-01T11:15:45;17.10;;;8.57;;
43710;SDS011;29309;42.682;23.372;2022-09-01T11:18:30;14.30;;;9.02;;
43710;SDS011;29309;42.682;23.372;2022-09-01T11:27:02;11.43;;;8.73;;
43710;SDS011;29309;42.682;23.372;2022-09-01T11:32:24;11.00;;;8.27;;
43710;SDS011;29309;42.682;23.372;2022-09-01T11:34:56;16.63;;;8.75;;
43710;SDS011;29309;42.682;23.372;2022-09-01T11:37:26;12.18;;;8.60;;
43710;SDS011;29309;42.682;23.372;2022-09-01T11:39:55;18.48;;;9.10;;
43710;SDS011;29309;42.682;23.372;2022-09-01T11:42:26;11.30;;;7.93;;
43710;SDS011;29309;42.682;23.372;2022-09-01T11:44:58;19.83;;;8.88;;
43710;SDS011;29309;42.682;23.372;2022-09-01T11:47:30;11.93;;;8.50;;
43710;SDS011;29309;42.682;23.372;2022-09-01T11:50:24;14.10;;;7.90;;
43710;SDS011;29309;42.682;23.372;2022-09-01T11:52:59;13.57;;;8.40;;
43710;SDS011;29309;42.682;23.372;2022-09-01T11:58:36;13.48;;;7.97;;
43710;SDS011;29309;42.682;23.372;2022-09-01T12:01:11;13.88;;;8.05;;
43710;SDS011;29309;42.682;23.372;2022-09-01T12:03:48;11.65;;;8.13;;
43710;SDS011;29309;42.682;23.372;2022-09-01T12:06:18;11.77;;;8.77;;
43710;SDS011;29309;42.682;23.372;2022-09-01T12:09:00;12.73;;;8.38;;
43710;SDS011;29309;42.682;23.372;2022-09-01T12:11:33;15.20;;;8.52;;
43710;SDS011;29309;42.682;23.372;2022-09-01T12:16:39;14.15;;;8.85;;
43710;SDS011;29309;42.682;23.372;2022-09-01T12:19:06;13.93;;;8.30;;
43710;SDS011;29309;42.682;23.372;2022-09-01T12:21:36;14.52;;;8.63;;
43710;SDS011;29309;42.682;23.372;2022-09-01T12:26:52;10.98;;;8.88;;
43710;SDS011;29309;42.682;23.372;2022-09-01T12:29:21;15.95;;;8.52;;
43710;SDS011;29309;42.682;23.372;2022-09-01T12:31:48;14.27;;;8.07;;
43710;SDS011;29309;42.682;23.372;2022-09-01T12:39:45;12.80;;;9.13;;
43710;SDS011;29309;42.682;23.372;2022-09-01T12:44:52;13.68;;;8.70;;
43710;SDS011;29309;42.682;23.372;2022-09-01T12:49:57;14.93;;;9.80;;
43710;SDS011;29309;42.682;23.372;2022-09-01T12:52:29;12.73;;;8.77;;
43710;SDS011;29309;42.682;23.372;2022-09-01T13:02:34;17.15;;;9.93;;
43710;SDS011;29309;42.682;23.372;2022-09-01T13:08:09;18.05;;;8.70;;
43710;SDS011;29309;42.682;23.372;2022-09-01T13:10:37;12.55;;;9.38;;
43710;SDS011;29309;42.682;23.372;2022-09-01T13:13:05;12.75;;;9.23;;
43710;SDS011;29309;42.682;23.372;2022-09-01T13:15:31;14.25;;;9.13;;
43710;SDS011;29309;42.682;23.372;2022-09-01T13:17:58;21.30;;;9.75;;
43710;SDS011;29309;42.682;23.372;2022-09-01T13:20:23;13.57;;;10.13;;
43710;SDS011;29309;42.682;23.372;2022-09-01T13:22:52;9.68;;;8.18;;
43710;SDS011;29309;42.682;23.372;2022-09-01T13:25:19;14.32;;;8.65;;
43710;SDS011;29309;42.682;23.372;2022-09-01T13:27:45;12.25;;;8.45;;
43710;SDS011;29309;42.682;23.372;2022-09-01T13:30:13;16.15;;;8.82;;
43710;SDS011;29309;42.682;23.372;2022-09-01T13:32:44;14.15;;;8.48;;
43710;SDS011;29309;42.682;23.372;2022-09-01T13:35:11;17.83;;;8.02;;
43710;SDS011;29309;42.682;23.372;2022-09-01T13:37:43;11.27;;;8.50;;
43710;SDS011;29309;42.682;23.372;2022-09-01T13:40:09;11.15;;;8.77;;
43710;SDS011;29309;42.682;23.372;2022-09-01T13:42:41;12.85;;;7.65;;
43710;SDS011;29309;42.682;23.372;2022-09-01T13:45:08;15.77;;;8.43;;
43710;SDS011;29309;42.682;23.372;2022-09-01T13:47:37;10.75;;;7.60;;
43710;SDS011;29309;42.682;23.372;2022-09-01T13:50:06;12.80;;;8.38;;
43710;SDS011;29309;42.682;23.372;2022-09-01T13:52:33;10.15;;;8.15;;
43710;SDS011;29309;42.682;23.372;2022-09-01T13:54:59;13.10;;;8.60;;
43710;SDS011;29309;42.682;23.372;2022-09-01T13:57:25;13.30;;;9.63;;
43710;SDS011;29309;42.682;23.372;2022-09-01T13:59:51;12.02;;;8.65;;
43710;SDS011;29309;42.682;23.372;2022-09-01T14:02:16;12.50;;;9.15;;
43710;SDS011;29309;42.682;23.372;2022-09-01T14:04:42;12.45;;;8.98;;
43710;SDS011;29309;42.682;23.372;2022-09-01T14:07:07;15.70;;;9.07;;
43710;SDS011;29309;42.682;23.372;2022-09-01T14:09:33;16.40;;;9.05;;
43710;SDS011;29309;42.682;23.372;2022-09-01T14:11:59;17.27;;;9.50;;
43710;SDS011;29309;42.682;23.372;2022-09-01T14:14:24;12.57;;;9.70;;
43710;SDS011;29309;42.682;23.372;2022-09-01T14:16:50;13.68;;;9.30;;
43710;SDS011;29309;42.682;23.372;2022-09-01T14:19:15;17.23;;;9.77;;
43710;SDS011;29309;42.682;23.372;2022-09-01T14:21:41;16.50;;;9.90;;
43710;SDS011;29309;42.682;23.372;2022-09-01T14:24:07;15.85;;;9.13;;
43710;SDS011;29309;42.682;23.372;2022-09-01T14:26:32;10.88;;;9.23;;
43710;SDS011;29309;42.682;23.372;2022-09-01T14:28:58;17.10;;;8.98;;
43710;SDS011;29309;42.682;23.372;2022-09-01T14:31:25;14.80;;;9.68;;
43710;SDS011;29309;42.682;23.372;2022-09-01T14:33:51;13.70;;;10.07;;
43710;SDS011;29309;42.682;23.372;2022-09-01T14:36:21;17.30;;;10.38;;
43710;SDS011;29309;42.682;23.372;2022-09-01T14:38:49;14.00;;;8.90;;
43710;SDS011;29309;42.682;23.372;2022-09-01T14:41:15;12.82;;;9.13;;
43710;SDS011;29309;42.682;23.372;2022-09-01T14:43:51;14.15;;;9.85;;
43710;SDS011;29309;42.682;23.372;2022-09-01T14:46:33;12.88;;;9.02;;
43710;SDS011;29309;42.682;23.372;2022-09-01T14:49:01;14.30;;;10.90;;
43710;SDS011;29309;42.682;23.372;2022-09-01T14:51:28;13.27;;;10.00;;
43710;SDS011;29309;42.682;23.372;2022-09-01T14:53:56;14.25;;;10.43;;
43710;SDS011;29309;42.682;23.372;2022-09-01T14:56:22;11.40;;;9.82;;
43710;SDS011;29309;42.682;23.372;2022-09-01T14:58:48;17.08;;;9.75;;
43710;SDS011;29309;42.682;23.372;2022-09-01T15:01:16;17.00;;;10.75;;
43710;SDS011;29309;42.682;23.372;2022-09-01T15:03:45;15.70;;;10.95;;
43710;SDS011;29309;42.682;23.372;2022-09-01T15:06:12;13.55;;;10.18;;
43710;SDS011;29309;42.682;23.372;2022-09-01T15:08:40;14.15;;;9.75;;
43710;SDS011;29309;42.682;23.372;2022-09-01T15:11:07;13.57;;;9.85;;
43710;SDS011;29309;42.682;23.372;2022-09-01T15:13:34;16.67;;;9.68;;
43710;SDS011;29309;42.682;23.372;2022-09-01T15:16:00;14.95;;;9.60;;
43710;SDS011;29309;42.682;23.372;2022-09-01T15:18:26;13.23;;;9.02;;
43710;SDS011;29309;42.682;23.372;2022-09-01T15:20:51;13.43;;;9.25;;
43710;SDS011;29309;42.682;23.372;2022-09-01T15:23:23;10.80;;;9.68;;
43710;SDS011;29309;42.682;23.372;2022-09-01T15:25:51;11.30;;;9.20;;
43710;SDS011;29309;42.682;23.372;2022-09-01T15:28:18;11.25;;;9.25;;
43710;SDS011;29309;42.682;23.372;2022-09-01T15:30:44;13.07;;;9.63;;
43710;SDS011;29309;42.682;23.372;2022-09-01T15:33:10;15.65;;;9.57;;
43710;SDS011;29309;42.682;23.372;2022-09-01T15:35:36;12.57;;;9.32;;
43710;SDS011;29309;42.682;23.372;2022-09-01T15:38:01;13.40;;;9.65;;
43710;SDS011;29309;42.682;23.372;2022-09-01T15:40:29;15.85;;;9.40;;
43710;SDS011;29309;42.682;23.372;2022-09-01T15:42:54;16.05;;;9.68;;
43710;SDS011;29309;42.682;23.372;2022-09-01T15:45:21;11.40;;;9.15;;
43710;SDS011;29309;42.682;23.372;2022-09-01T15:47:48;15.88;;;9.77;;
43710;SDS011;29309;42.682;23.372;2022-09-01T15:50:16;16.73;;;9.23;;
43710;SDS011;29309;42.682;23.372;2022-09-01T15:52:49;13.70;;;10.18;;